CheckWX is a tool to help pilots better visualize weather data.  It is not intended as a substitute for an official pre-flight weather briefing.

02:28:53 UTC

SKIB METAR
Perales Airport
Ibagué, Colombia
Current

29 mins ago

SKIB 080200Z VRB02KT 9999 SCT023 BKN200 22/22 A3003
Observed
Dec-8 @ 02:00 UTC
Wind
  • Variable at 2 KTS
Visibility
10,000+ meters
Flight Rules
VFR
Cloud Levels
  • Scattered at 2,300' AGL
  • Broken at 20,000' AGL
Temperature
22°C / 72°F
Dewpoint
22°C / 72°F
Humidity
100%
Altimeter
30.03" Hg
Pressure
1016.92 hPa
Previous

1 hour ago

SKIB 080100Z 22003KT 9999 FEW023 SCT200 22/21 A3000
Observed
Dec-8 @ 01:00 UTC
Wind
  • 220° at 3 KTS
Visibility
10,000+ meters
Flight Rules
VFR
Cloud Levels
  • Few at 2,300' AGL
  • Scattered at 20,000' AGL
Temperature
22°C / 72°F
Dewpoint
21°C / 70°F
Humidity
94%
Altimeter
30" Hg
Pressure
1015.92 hPa
Previous

2 hours ago

SKIB 080000Z VRB02KT 9999 FEW023 BKN200 22/20 A2997
Observed
Dec-8 @ 00:00 UTC
Wind
  • Variable at 2 KTS
Visibility
10,000+ meters
Flight Rules
VFR
Cloud Levels
  • Few at 2,300' AGL
  • Broken at 20,000' AGL
Temperature
22°C / 72°F
Dewpoint
20°C / 68°F
Humidity
88%
Altimeter
29.97" Hg
Pressure
1014.92 hPa